Time;durP1;ratioP1;P1;durP2;ratioP2;P2;SDS_P1;SDS_P2;PMS_P1;PMS_P2;Temp;Humidity;BMP_temperature;BMP_pressure;BME280_temperature;BME280_humidity;BME280_pressure;Samples;Min_cycle;Max_cycle;Signal;HPM_P1;HPM_P2
2022/10/11 00:00:23;;;;;;;11.00;7.73;;;14.20;99.90;;;;;;5050225;28;20288;-67
2022/10/11 00:02:48;;;;;;;10.10;7.67;;;14.20;99.90;;;;;;5042575;28;20439;-68
2022/10/11 00:05:14;;;;;;;9.07;7.07;;;14.20;99.90;;;;;;5049843;28;20485;-67
2022/10/11 00:07:39;;;;;;;10.57;7.70;;;14.20;99.90;;;;;;5049542;28;20690;-67
2022/10/11 00:10:06;;;;;;;8.20;7.40;;;14.20;99.90;;;;;;5051215;28;20256;-67
2022/10/11 00:12:32;;;;;;;13.27;7.20;;;14.10;99.90;;;;;;5047209;28;20674;-67
2022/10/11 00:14:58;;;;;;;11.00;7.90;;;14.00;99.90;;;;;;5044843;28;20435;-67
2022/10/11 00:17:23;;;;;;;14.40;8.80;;;13.90;99.90;;;;;;5046423;28;20197;-67
2022/10/11 00:19:49;;;;;;;8.33;7.60;;;13.80;99.90;;;;;;5047340;28;20213;-67
2022/10/11 00:22:14;;;;;;;9.83;8.83;;;13.80;99.90;;;;;;5049866;28;20192;-67
2022/10/11 00:24:40;;;;;;;13.03;8.20;;;13.70;99.90;;;;;;5044897;28;20182;-67
2022/10/11 00:27:05;;;;;;;14.33;8.40;;;13.70;99.90;;;;;;5051939;28;20565;-67
2022/10/11 00:29:31;;;;;;;9.37;7.40;;;13.60;99.90;;;;;;5040802;28;20716;-67
2022/10/11 00:31:56;;;;;;;13.27;8.10;;;13.60;99.90;;;;;;5048921;28;20740;-67
2022/10/11 00:34:22;;;;;;;11.33;9.30;;;13.60;99.90;;;;;;5054744;28;20174;-67
2022/10/11 00:36:47;;;;;;;10.57;7.70;;;13.60;99.90;;;;;;5041964;28;20206;-67
2022/10/11 00:39:13;;;;;;;10.17;8.73;;;13.60;99.90;;;;;;5047028;28;20208;-67
2022/10/11 00:41:39;;;;;;;9.40;7.80;;;13.60;99.90;;;;;;5051771;28;20174;-67
2022/10/11 00:44:19;;;;;;;17.33;8.40;;;13.50;99.90;;;;;;5051741;28;20169;-67
2022/10/11 00:46:56;;;;;;;11.97;8.80;;;13.60;99.90;;;;;;5045149;28;20208;-67
2022/10/11 00:49:35;;;;;;;9.43;8.40;;;13.60;99.90;;;;;;5047061;28;21037;-67
2022/10/11 00:52:10;;;;;;;13.83;7.73;;;13.60;99.90;;;;;;5046766;28;20799;-67
2022/10/11 00:54:40;;;;;;;10.00;7.60;;;13.60;99.90;;;;;;5042883;28;20435;-67
2022/10/11 00:57:08;;;;;;;8.73;7.93;;;13.60;99.90;;;;;;5051110;28;20463;-67
2022/10/11 00:59:38;;;;;;;10.03;7.47;;;13.60;99.90;;;;;;5040016;28;20460;-67
2022/10/11 01:02:05;;;;;;;9.83;7.33;;;13.70;99.90;;;;;;5047680;28;20467;-67
2022/10/11 01:04:31;;;;;;;8.10;6.73;;;13.60;99.90;;;;;;5047673;28;20440;-67
2022/10/11 01:06:57;;;;;;;8.80;6.50;;;13.60;99.90;;;;;;5047165;28;20482;-67
2022/10/11 01:09:23;;;;;;;8.87;6.63;;;13.50;99.90;;;;;;5049945;28;20181;-67
2022/10/11 01:11:51;;;;;;;10.07;6.80;;;13.40;99.90;;;;;;5050636;28;20509;-67
2022/10/11 01:14:22;;;;;;;12.23;8.63;;;13.40;99.90;;;;;;5044205;28;20436;-67
2022/10/11 01:17:08;;;;;;;7.73;6.93;;;13.30;99.90;;;;;;5051201;28;20601;-67
2022/10/11 01:19:45;;;;;;;8.87;6.83;;;13.30;99.90;;;;;;5047298;28;20476;-67
2022/10/11 01:22:46;;;;;;;14.03;7.40;;;13.30;99.90;;;;;;5042133;28;20436;-67
2022/10/11 01:25:31;;;;;;;12.33;7.63;;;13.30;99.90;;;;;;5054876;28;20895;-67
2022/10/11 01:28:34;;;;;;;7.87;7.10;;;13.30;99.90;;;;;;5051390;28;20858;-67
2022/10/11 01:31:10;;;;;;;8.20;7.40;;;13.30;99.90;;;;;;5028884;28;20440;-67
2022/10/11 01:33:44;;;;;;;10.50;7.43;;;13.20;99.90;;;;;;5037208;28;20431;-67
2022/10/11 01:36:26;;;;;;;13.53;8.80;;;13.20;99.90;;;;;;5044241;28;20812;-67
2022/10/11 01:39:03;;;;;;;13.20;8.47;;;13.20;99.90;;;;;;5043897;28;20456;-66
2022/10/11 01:41:45;;;;;;;13.27;8.50;;;13.20;99.90;;;;;;5047804;28;20489;-67
2022/10/11 01:44:12;;;;;;;8.80;7.70;;;13.10;99.90;;;;;;5044669;28;20536;-67
2022/10/11 01:46:38;;;;;;;9.00;8.10;;;13.10;99.90;;;;;;5046666;28;20860;-67
2022/10/11 01:49:03;;;;;;;10.90;8.30;;;13.10;99.90;;;;;;5041293;28;20490;-67
2022/10/11 01:51:39;;;;;;;15.43;7.97;;;13.10;99.90;;;;;;5047095;28;20677;-67
2022/10/11 01:54:13;;;;;;;11.00;8.00;;;13.10;99.90;;;;;;5041359;28;20174;-67
2022/10/11 01:57:05;;;;;;;21.90;10.80;;;13.10;99.90;;;;;;5047873;28;20509;-67
2022/10/11 01:59:37;;;;;;;12.77;9.40;;;13.10;99.90;;;;;;5040480;28;20530;-67
2022/10/11 02:02:40;;;;;;;10.70;8.60;;;13.10;99.90;;;;;;5042293;28;20433;-67
2022/10/11 02:05:35;;;;;;;14.27;10.43;;;13.00;99.90;;;;;;5040321;28;20518;-67
2022/10/11 02:08:26;;;;;;;16.60;10.13;;;13.10;99.90;;;;;;5027344;28;20533;-67
2022/10/11 02:11:01;;;;;;;12.60;9.40;;;13.20;99.90;;;;;;5038909;28;20431;-67
2022/10/11 02:13:36;;;;;;;14.60;7.87;;;13.20;99.90;;;;;;5049444;28;20435;-67
2022/10/11 02:16:09;;;;;;;12.03;8.57;;;13.10;99.90;;;;;;5045217;28;20437;-67
2022/10/11 02:18:40;;;;;;;12.67;8.30;;;13.00;99.90;;;;;;5037774;28;20452;-67
2022/10/11 02:21:09;;;;;;;14.40;8.77;;;13.00;99.90;;;;;;5044691;28;20770;-66
2022/10/11 02:24:08;;;;;;;15.97;10.17;;;12.90;99.90;;;;;;5034261;28;20435;-67
2022/10/11 02:26:38;;;;;;;13.10;8.77;;;12.90;99.90;;;;;;5049790;28;20538;-67
2022/10/11 02:29:08;;;;;;;11.33;8.87;;;12.90;99.90;;;;;;5042711;28;20792;-67
2022/10/11 02:31:35;;;;;;;12.07;9.43;;;12.80;99.90;;;;;;5040031;28;20439;-67
2022/10/11 02:34:43;;;;;;;14.10;10.57;;;12.90;99.90;;;;;;5046117;28;20443;-67
2022/10/11 02:37:49;;;;;;;15.93;10.33;;;12.90;99.90;;;;;;5038838;28;20453;-67
2022/10/11 02:40:20;;;;;;;11.77;9.73;;;12.90;99.90;;;;;;5039426;28;20514;-67
2022/10/11 02:43:04;;;;;;;12.60;10.53;;;13.00;99.90;;;;;;5050335;28;20486;-67
2022/10/11 02:45:38;;;;;;;14.40;10.07;;;13.10;99.90;;;;;;5043926;28;20790;-67
2022/10/11 02:48:06;;;;;;;16.87;9.93;;;13.20;99.90;;;;;;5042654;28;20975;-67
2022/10/11 02:50:31;;;;;;;10.17;8.13;;;13.20;99.90;;;;;;5044703;28;20435;-67
2022/10/11 02:52:57;;;;;;;11.67;9.40;;;13.20;99.90;;;;;;5039818;28;20432;-67
2022/10/11 02:55:23;;;;;;;9.60;8.60;;;13.20;99.90;;;;;;5048091;28;20185;-67
2022/10/11 02:57:49;;;;;;;11.10;9.30;;;13.20;99.90;;;;;;5044027;28;20225;-67
2022/10/11 03:00:15;;;;;;;10.53;9.47;;;13.20;99.90;;;;;;5044503;28;20297;-67
2022/10/11 03:02:40;;;;;;;11.93;9.30;;;13.30;99.90;;;;;;5050266;28;20174;-67
2022/10/11 03:05:06;;;;;;;13.57;9.50;;;13.30;99.90;;;;;;5040182;28;20429;-67
2022/10/11 03:07:32;;;;;;;11.60;7.63;;;13.30;99.90;;;;;;5038968;28;20205;-67
2022/10/11 03:09:57;;;;;;;11.33;9.60;;;13.40;99.90;;;;;;5043214;28;20193;-67
2022/10/11 03:12:23;;;;;;;19.50;10.67;;;13.50;99.90;;;;;;5045191;28;20205;-67
2022/10/11 03:14:48;;;;;;;14.03;9.30;;;13.50;99.90;;;;;;5044082;28;20206;-66
2022/10/11 03:17:14;;;;;;;14.77;9.97;;;13.50;99.90;;;;;;5043628;28;20209;-67
2022/10/11 03:19:40;;;;;;;20.37;14.73;;;13.50;99.90;;;;;;5030389;28;20206;-67
2022/10/11 03:22:06;;;;;;;15.07;12.17;;;13.50;99.90;;;;;;5045961;28;20174;-67
2022/10/11 03:24:31;;;;;;;18.33;12.40;;;13.50;99.90;;;;;;5040043;28;20181;-67
2022/10/11 03:26:57;;;;;;;17.50;11.10;;;13.60;99.90;;;;;;5043777;28;20455;-67
2022/10/11 03:29:22;;;;;;;20.20;10.70;;;13.60;99.90;;;;;;5049332;28;20643;-67
2022/10/11 03:31:48;;;;;;;13.40;11.10;;;13.50;99.90;;;;;;5051749;28;20192;-67
2022/10/11 03:34:13;;;;;;;15.07;12.00;;;13.60;99.90;;;;;;5046002;28;20634;-67
2022/10/11 03:36:39;;;;;;;17.83;13.27;;;13.60;99.90;;;;;;5051909;28;20628;-67
2022/10/11 03:39:05;;;;;;;15.23;11.27;;;13.60;99.90;;;;;;5050947;28;20217;-67
2022/10/11 03:41:30;;;;;;;17.10;11.30;;;13.60;99.90;;;;;;5052065;28;20184;-67
2022/10/11 03:43:56;;;;;;;18.47;14.30;;;13.60;99.90;;;;;;5046039;28;20671;-67
2022/10/11 03:46:21;;;;;;;16.40;13.07;;;13.50;99.90;;;;;;5045931;28;20198;-67
2022/10/11 03:48:47;;;;;;;18.07;13.93;;;13.50;99.90;;;;;;5051018;28;20282;-67
2022/10/11 03:51:13;;;;;;;21.87;14.70;;;13.40;99.90;;;;;;5048346;28;20668;-67
2022/10/11 03:53:40;;;;;;;20.53;15.43;;;13.30;99.90;;;;;;5052402;28;20262;-67
2022/10/11 03:56:06;;;;;;;27.87;16.80;;;13.30;99.90;;;;;;5049695;28;20431;-67
2022/10/11 03:58:32;;;;;;;22.57;16.90;;;13.30;99.90;;;;;;5039271;28;20471;-66
2022/10/11 04:00:57;;;;;;;26.30;17.90;;;13.30;99.90;;;;;;5057536;28;20431;-67
2022/10/11 04:03:23;;;;;;;25.50;16.97;;;13.40;99.90;;;;;;5052036;28;20186;-67
2022/10/11 04:05:48;;;;;;;25.50;16.67;;;13.50;99.90;;;;;;5040755;28;20193;-67
2022/10/11 04:08:14;;;;;;;20.80;16.27;;;13.50;99.90;;;;;;5050837;28;20194;-67
2022/10/11 04:10:40;;;;;;;18.13;14.80;;;13.60;99.90;;;;;;5045096;28;20192;-67
2022/10/11 04:13:06;;;;;;;21.43;17.17;;;13.60;99.90;;;;;;5048936;28;20181;-67
2022/10/11 04:15:32;;;;;;;19.07;15.40;;;13.70;99.90;;;;;;5051730;28;20197;-67
2022/10/11 04:17:57;;;;;;;18.50;15.70;;;13.70;99.90;;;;;;5049927;28;20470;-67
2022/10/11 04:20:23;;;;;;;20.63;17.00;;;13.70;99.90;;;;;;5062057;28;20217;-67
2022/10/11 04:22:49;;;;;;;20.40;13.67;;;13.80;99.90;;;;;;5061582;28;20177;-67
2022/10/11 04:25:15;;;;;;;26.47;15.20;;;13.90;99.90;;;;;;5059933;28;20177;-67
2022/10/11 04:27:40;;;;;;;17.77;15.33;;;13.90;99.90;;;;;;5059202;28;20521;-67
2022/10/11 04:30:07;;;;;;;15.80;12.37;;;13.90;99.90;;;;;;5038314;28;20186;-67
2022/10/11 04:32:32;;;;;;;19.30;13.50;;;13.90;99.90;;;;;;5038683;28;20196;-67
2022/10/11 04:34:58;;;;;;;29.70;20.87;;;14.00;99.90;;;;;;5039160;28;20437;-67
2022/10/11 04:37:23;;;;;;;24.40;17.40;;;13.90;99.90;;;;;;5046996;28;20209;-67
2022/10/11 04:39:49;;;;;;;19.67;15.33;;;13.90;99.90;;;;;;5045004;28;20291;-67
2022/10/11 04:42:15;;;;;;;17.20;14.97;;;13.90;99.90;;;;;;5063520;28;20630;-67
2022/10/11 04:44:40;;;;;;;20.80;16.43;;;13.90;99.90;;;;;;5053695;28;20178;-67
2022/10/11 04:47:06;;;;;;;26.30;16.27;;;13.90;99.90;;;;;;5061549;28;20474;-66
2022/10/11 04:49:31;;;;;;;23.73;18.40;;;13.90;99.90;;;;;;5061576;28;20217;-66
2022/10/11 04:51:57;;;;;;;22.70;18.57;;;13.80;99.90;;;;;;5063655;28;20181;-67
2022/10/11 04:54:23;;;;;;;25.17;15.70;;;13.80;99.90;;;;;;5060539;28;20188;-66
2022/10/11 04:56:48;;;;;;;20.27;15.90;;;13.70;99.90;;;;;;5061321;28;20706;-67
2022/10/11 04:59:14;;;;;;;23.77;16.70;;;13.70;99.90;;;;;;5052327;28;20212;-67
2022/10/11 05:01:39;;;;;;;23.70;17.03;;;13.80;99.90;;;;;;5045480;28;20182;-66
2022/10/11 05:04:05;;;;;;;20.97;17.07;;;13.80;99.90;;;;;;5042210;28;20545;-67
2022/10/11 05:06:30;;;;;;;23.13;17.37;;;13.80;99.90;;;;;;5041908;28;20178;-67
2022/10/11 05:08:56;;;;;;;28.57;21.73;;;13.80;99.90;;;;;;5051258;28;20196;-67
2022/10/11 05:11:22;;;;;;;28.60;19.67;;;13.70;99.90;;;;;;5053809;28;20639;-67
2022/10/11 05:13:47;;;;;;;23.20;19.23;;;13.80;99.90;;;;;;5051086;28;20190;-67
2022/10/11 05:16:14;;;;;;;21.77;18.73;;;13.80;99.90;;;;;;5055211;28;20182;-67
2022/10/11 05:18:40;;;;;;;24.53;19.50;;;13.80;99.90;;;;;;5055318;28;20653;-67
2022/10/11 05:21:24;;;;;;;28.77;20.07;;;13.80;99.90;;;;;;5052681;28;21008;-67
2022/10/11 05:23:52;;;;;;;31.67;21.00;;;13.80;99.90;;;;;;5045864;28;20447;-66
2022/10/11 05:26:19;;;;;;;33.00;19.03;;;13.80;99.90;;;;;;5045965;28;20441;-66
2022/10/11 05:28:45;;;;;;;28.00;20.03;;;14.00;99.90;;;;;;5043744;28;20531;-66
2022/10/11 05:31:11;;;;;;;27.37;20.20;;;14.00;99.90;;;;;;5042962;28;20536;-75
2022/10/11 05:33:37;;;;;;;27.83;18.40;;;14.00;99.90;;;;;;5051744;28;20538;-75
2022/10/11 05:36:03;;;;;;;24.50;19.77;;;14.00;99.90;;;;;;5063661;28;20975;-75
2022/10/11 05:38:29;;;;;;;25.37;19.23;;;14.00;99.90;;;;;;5044556;28;20494;-77
2022/10/11 05:40:59;;;;;;;29.40;22.17;;;14.00;99.90;;;;;;5052818;28;20455;-77
2022/10/11 05:43:25;;;;;;;26.20;20.60;;;14.00;99.90;;;;;;5058892;28;20669;-75
2022/10/11 05:45:50;;;;;;;23.30;18.67;;;14.00;99.90;;;;;;5042094;28;20432;-75
2022/10/11 05:48:16;;;;;;;24.80;18.37;;;14.10;99.90;;;;;;5040737;28;20201;-75
2022/10/11 05:50:41;;;;;;;22.80;20.10;;;14.10;99.90;;;;;;5045592;28;20182;-75
2022/10/11 05:53:07;;;;;;;50.13;35.60;;;14.10;99.90;;;;;;5053140;28;20177;-75
2022/10/11 05:55:41;;;;;;;28.90;20.50;;;14.10;99.90;;;;;;5053242;28;20173;-75
2022/10/11 05:58:10;;;;;;;31.97;21.90;;;14.10;99.90;;;;;;5052899;28;20205;-76
2022/10/11 06:00:36;;;;;;;25.40;20.53;;;14.10;99.90;;;;;;5053024;28;20460;-75
2022/10/11 06:03:03;;;;;;;34.10;23.17;;;14.10;99.90;;;;;;5053048;28;20412;-75
2022/10/11 06:05:28;;;;;;;26.13;22.53;;;14.10;99.90;;;;;;5053076;28;20416;-75
2022/10/11 06:07:54;;;;;;;36.87;21.87;;;14.10;99.90;;;;;;5052834;28;20443;-75
2022/10/11 06:10:19;;;;;;;34.73;22.37;;;14.20;99.90;;;;;;5051413;28;20556;-76
2022/10/11 06:12:45;;;;;;;34.43;23.57;;;14.20;99.90;;;;;;5052848;28;20260;-75
2022/10/11 06:15:10;;;;;;;27.20;21.20;;;14.20;99.90;;;;;;5052903;28;20173;-76
2022/10/11 06:17:36;;;;;;;29.03;22.80;;;14.20;99.90;;;;;;5052897;28;20888;-76
2022/10/11 06:20:03;;;;;;;43.40;27.27;;;14.10;99.90;;;;;;5052484;28;20577;-76
2022/10/11 06:22:28;;;;;;;46.57;25.97;;;14.10;99.90;;;;;;5052547;28;20425;-76
2022/10/11 06:24:54;;;;;;;39.60;25.63;;;14.10;99.90;;;;;;5052713;28;20412;-76
2022/10/11 06:27:19;;;;;;;35.20;25.00;;;14.20;99.90;;;;;;5052480;28;20221;-76
2022/10/11 06:29:45;;;;;;;31.43;21.90;;;14.20;99.90;;;;;;5052303;28;20170;-76
2022/10/11 06:32:12;;;;;;;33.17;22.00;;;14.10;99.90;;;;;;5052455;28;20173;-76
2022/10/11 06:34:37;;;;;;;32.50;24.53;;;14.20;99.90;;;;;;5052531;28;20166;-76
2022/10/11 06:37:03;;;;;;;23.77;20.63;;;14.10;99.90;;;;;;5052371;28;21002;-76
2022/10/11 06:39:29;;;;;;;31.83;22.20;;;14.20;99.90;;;;;;5052092;28;20194;-75
2022/10/11 06:41:54;;;;;;;33.57;22.20;;;14.10;99.90;;;;;;5045984;28;20177;-76
2022/10/11 06:44:20;;;;;;;34.60;23.60;;;14.10;99.90;;;;;;5033443;28;20292;-76
2022/10/11 06:46:45;;;;;;;39.00;26.50;;;14.10;99.90;;;;;;5020787;28;20240;-76
2022/10/11 06:49:11;;;;;;;29.13;22.50;;;14.20;99.90;;;;;;5039716;28;20173;-76
2022/10/11 06:51:36;;;;;;;35.83;22.47;;;14.20;99.90;;;;;;5043407;28;20205;-76
2022/10/11 06:54:02;;;;;;;28.43;23.50;;;14.20;99.90;;;;;;5048364;28;20193;-76
2022/10/11 06:56:30;;;;;;;25.77;20.47;;;14.30;99.90;;;;;;5051874;28;20234;-76
2022/10/11 06:58:57;;;;;;;30.60;22.60;;;14.30;99.90;;;;;;5050945;28;20193;-77
2022/10/11 07:01:22;;;;;;;31.43;22.40;;;14.20;99.90;;;;;;5051593;28;20503;-77
2022/10/11 07:03:53;;;;;;;25.83;22.37;;;14.20;99.90;;;;;;5042208;28;20535;-76
2022/10/11 07:06:21;;;;;;;40.00;26.10;;;14.20;99.90;;;;;;5051350;28;20697;-76
2022/10/11 07:08:48;;;;;;;32.33;22.53;;;14.40;99.90;;;;;;5035733;28;20441;-75
2022/10/11 07:11:19;;;;;;;27.93;22.30;;;14.40;99.90;;;;;;5050065;28;20427;-76
2022/10/11 07:13:55;;;;;;;30.17;21.63;;;14.30;99.90;;;;;;5049386;28;20495;-79
2022/10/11 07:16:22;;;;;;;32.50;23.67;;;14.30;99.90;;;;;;5051365;28;20480;-76
2022/10/11 07:18:52;;;;;;;34.10;24.30;;;14.40;99.90;;;;;;5036326;28;20540;-76
2022/10/11 07:21:17;;;;;;;28.77;21.50;;;14.40;99.90;;;;;;5031812;28;20452;-78
2022/10/11 07:23:43;;;;;;;31.37;21.03;;;14.40;99.90;;;;;;5045893;28;20460;-77
2022/10/11 07:26:09;;;;;;;32.30;23.43;;;14.50;99.90;;;;;;5049884;28;20173;-75
2022/10/11 07:28:35;;;;;;;31.03;22.20;;;14.50;99.90;;;;;;5050764;28;20196;-76
2022/10/11 07:31:06;;;;;;;27.17;20.40;;;14.30;99.90;;;;;;5051419;28;20420;-76
2022/10/11 07:33:32;;;;;;;33.00;22.80;;;14.30;99.90;;;;;;5045317;28;20755;-77
2022/10/11 07:35:58;;;;;;;32.37;22.13;;;14.40;99.90;;;;;;5047174;28;20506;-77
2022/10/11 07:38:23;;;;;;;30.47;23.80;;;14.40;99.90;;;;;;5040362;28;20220;-77
2022/10/11 07:40:49;;;;;;;27.93;21.80;;;14.40;99.90;;;;;;5050914;28;20463;-77
2022/10/11 07:43:14;;;;;;;40.10;23.63;;;14.50;99.90;;;;;;5050614;28;20177;-77
2022/10/11 07:45:43;;;;;;;32.37;22.37;;;14.60;99.90;;;;;;5048360;28;20530;-75
2022/10/11 07:48:09;;;;;;;31.00;23.20;;;14.60;99.90;;;;;;5043671;28;20240;-75
2022/10/11 07:50:35;;;;;;;35.73;23.70;;;14.70;99.90;;;;;;5048453;28;20432;-76
2022/10/11 07:53:00;;;;;;;30.30;22.30;;;14.70;99.90;;;;;;5051574;28;20339;-76
2022/10/11 07:55:26;;;;;;;26.17;20.87;;;14.80;99.90;;;;;;5039302;28;20175;-76
2022/10/11 07:57:53;;;;;;;29.40;21.13;;;14.90;99.90;;;;;;5049953;28;20300;-76
2022/10/11 08:00:19;;;;;;;29.73;23.37;;;15.10;99.90;;;;;;5050926;28;20205;-76
2022/10/11 08:02:45;;;;;;;36.30;22.87;;;15.20;99.90;;;;;;5049121;28;20424;-77
2022/10/11 08:05:10;;;;;;;28.10;22.10;;;15.30;99.90;;;;;;5047764;28;20169;-76
2022/10/11 08:07:36;;;;;;;31.30;20.63;;;15.50;99.90;;;;;;5050877;28;20546;-76
2022/10/11 08:10:03;;;;;;;24.33;19.13;;;15.60;99.90;;;;;;5050396;28;20178;-76
2022/10/11 08:12:28;;;;;;;25.80;20.70;;;15.70;99.90;;;;;;5051785;28;20257;-76
2022/10/11 08:14:55;;;;;;;24.63;18.73;;;15.80;99.90;;;;;;5046650;28;20523;-76
2022/10/11 08:17:20;;;;;;;27.40;22.53;;;15.90;99.90;;;;;;5034955;28;20321;-76
2022/10/11 08:19:46;;;;;;;29.40;20.77;;;15.90;99.90;;;;;;5034025;28;21032;-76
2022/10/11 08:22:11;;;;;;;24.47;20.40;;;15.80;99.90;;;;;;5054111;28;20173;-75
2022/10/11 08:24:37;;;;;;;28.13;20.17;;;15.90;99.90;;;;;;5051527;28;20169;-76
2022/10/11 08:27:02;;;;;;;31.30;20.70;;;15.90;99.90;;;;;;5053842;28;20209;-76
2022/10/11 08:29:28;;;;;;;24.23;20.73;;;15.80;99.90;;;;;;5054520;28;20177;-76
2022/10/11 08:31:54;;;;;;;23.10;20.30;;;15.90;99.90;;;;;;5054013;28;20166;-75
2022/10/11 08:34:19;;;;;;;29.07;20.77;;;16.00;99.90;;;;;;5051092;28;20176;-76
2022/10/11 08:36:47;;;;;;;29.67;20.97;;;16.00;99.90;;;;;;5054234;28;20439;-76
2022/10/11 08:39:12;;;;;;;26.00;21.37;;;15.90;99.90;;;;;;5053911;28;20196;-76
2022/10/11 08:41:48;;;;;;;32.47;22.20;;;16.00;99.90;;;;;;5054478;28;20495;-76
2022/10/11 08:44:42;;;;;;;31.97;24.47;;;15.70;99.90;;;;;;5050612;28;20173;-76
2022/10/11 08:47:13;;;;;;;37.17;23.70;;;15.40;99.90;;;;;;5034286;28;20482;-75
2022/10/11 08:49:39;;;;;;;24.77;22.10;;;15.20;99.90;;;;;;5036378;28;20922;-75
2022/10/11 08:52:21;;;;;;;31.23;21.30;;;15.20;99.90;;;;;;5040876;28;20799;-75
2022/10/11 08:54:57;;;;;;;28.07;22.37;;;15.30;99.90;;;;;;5040963;28;20868;-75
2022/10/11 08:57:26;;;;;;;31.63;22.27;;;15.30;99.90;;;;;;5049173;28;20973;-74
2022/10/11 08:59:56;;;;;;;32.70;21.77;;;15.40;99.90;;;;;;5033941;28;20460;-75
2022/10/11 09:02:34;;;;;;;31.17;22.20;;;15.40;99.90;;;;;;5038119;28;20420;-75
2022/10/11 09:05:01;;;;;;;25.23;21.70;;;15.40;99.90;;;;;;5050447;28;20424;-75
2022/10/11 09:07:56;;;;;;;27.60;21.00;;;15.40;99.90;;;;;;5054082;28;20531;-75
2022/10/11 09:10:43;;;;;;;29.40;23.07;;;15.50;99.90;;;;;;5052806;28;20424;-75
2022/10/11 09:13:29;;;;;;;31.93;22.13;;;15.50;99.90;;;;;;5054010;28;20419;-74
2022/10/11 09:16:08;;;;;;;25.63;22.90;;;15.50;99.90;;;;;;5048408;28;20435;-75
2022/10/11 09:19:11;;;;;;;32.80;24.40;;;15.50;99.90;;;;;;5053383;28;20446;-75
2022/10/11 09:22:06;;;;;;;27.70;22.80;;;15.30;99.90;;;;;;5052843;28;20921;-75
2022/10/11 09:24:50;;;;;;;34.73;24.67;;;15.10;99.90;;;;;;5049771;28;20924;-75
2022/10/11 09:27:43;;;;;;;32.90;22.83;;;15.00;99.90;;;;;;5053229;28;20813;-75
2022/10/11 09:30:13;;;;;;;32.67;22.93;;;14.90;99.90;;;;;;5044238;28;20425;-76
2022/10/11 09:32:43;;;;;;;31.77;22.43;;;14.90;99.90;;;;;;5047235;28;20784;-75
2022/10/11 09:35:18;;;;;;;40.57;24.43;;;14.90;99.90;;;;;;5046374;28;20417;-76
2022/10/11 09:38:36;;;;;;;28.77;23.50;;;15.20;99.90;;;;;;5050776;28;20538;-76
2022/10/11 09:41:17;;;;;;;35.67;26.07;;;15.30;99.90;;;;;;5030602;28;20425;-76
2022/10/11 09:43:50;;;;;;;29.70;20.90;;;15.30;99.90;;;;;;5028662;28;20478;-77
2022/10/11 09:46:35;;;;;;;33.40;20.00;;;15.40;99.90;;;;;;5044728;28;20438;-76
2022/10/11 09:49:11;;;;;;;25.70;20.13;;;15.50;99.90;;;;;;5053110;28;20419;-76
2022/10/11 09:51:37;;;;;;;33.97;22.33;;;15.60;99.90;;;;;;5052550;28;20423;-76
2022/10/11 09:54:05;;;;;;;32.10;23.27;;;15.60;99.90;;;;;;5049915;28;20472;-75
2022/10/11 09:56:33;;;;;;;31.50;21.10;;;15.70;99.90;;;;;;5051791;28;20947;-75
2022/10/11 09:59:30;;;;;;;35.97;20.57;;;15.90;99.90;;;;;;5052352;28;20463;-75
2022/10/11 10:02:18;;;;;;;29.17;20.70;;;16.00;99.90;;;;;;5052317;28;20525;-75
2022/10/11 10:05:09;;;;;;;29.83;21.63;;;15.80;99.90;;;;;;5048769;28;20916;-75
2022/10/11 10:07:37;;;;;;;28.13;20.60;;;15.80;99.90;;;;;;5052914;28;20442;-75
2022/10/11 10:10:24;;;;;;;31.93;22.93;;;15.90;99.90;;;;;;5042314;28;20466;-74
2022/10/11 10:12:55;;;;;;;35.33;21.80;;;16.00;99.90;;;;;;5052933;28;20407;-75
2022/10/11 10:15:22;;;;;;;35.03;23.80;;;15.90;99.90;;;;;;5045744;28;20997;-73
2022/10/11 10:17:52;;;;;;;33.63;22.23;;;15.90;99.90;;;;;;5032822;28;20980;-71
2022/10/11 10:20:23;;;;;;;29.67;21.63;;;15.80;99.90;;;;;;5032513;28;20460;-68
2022/10/11 10:22:48;;;;;;;34.60;21.40;;;16.00;99.90;;;;;;5041133;28;20453;-67
2022/10/11 10:25:36;;;;;;;36.33;22.20;;;16.20;99.90;;;;;;5046503;28;20459;-69
2022/10/11 10:28:20;;;;;;;31.57;19.80;;;16.20;99.90;;;;;;5045941;28;20193;-68
2022/10/11 10:30:57;;;;;;;29.10;19.87;;;16.30;99.90;;;;;;5052159;28;20419;-68
2022/10/11 10:33:31;;;;;;;32.33;21.83;;;16.40;99.90;;;;;;5045847;28;20439;-68
2022/10/11 10:36:15;;;;;;;32.70;19.80;;;16.20;99.90;;;;;;5047532;28;20419;-68
2022/10/11 10:38:53;;;;;;;30.37;22.20;;;16.00;99.90;;;;;;5052198;28;20788;-68
2022/10/11 10:41:19;;;;;;;30.50;20.23;;;16.00;99.90;;;;;;5043277;28;20416;-68
2022/10/11 10:43:52;;;;;;;29.90;20.10;;;16.00;99.90;;;;;;5050739;28;20486;-68
2022/10/11 10:46:40;;;;;;;26.73;20.97;;;16.10;99.90;;;;;;5050599;28;20169;-68
2022/10/11 10:49:11;;;;;;;32.27;21.50;;;16.20;99.90;;;;;;5052124;28;20541;-68
2022/10/11 10:51:52;;;;;;;31.70;21.23;;;16.40;99.90;;;;;;5051623;28;20416;-68
2022/10/11 10:54:29;;;;;;;29.53;21.23;;;16.40;99.90;;;;;;5033498;28;20427;-68
2022/10/11 10:57:01;;;;;;;34.50;19.80;;;16.50;99.90;;;;;;5050972;28;20465;-68
2022/10/11 11:00:03;;;;;;;29.17;19.87;;;16.60;99.90;;;;;;5039052;28;20495;-68
2022/10/11 11:02:54;;;;;;;23.03;19.50;;;16.80;99.90;;;;;;5032018;28;20519;-68
2022/10/11 11:05:25;;;;;;;31.60;21.37;;;16.80;99.90;;;;;;5045842;28;20427;-68
2022/10/11 11:08:11;;;;;;;28.00;19.97;;;17.10;99.90;;;;;;5050691;28;20582;-68
2022/10/11 11:11:02;;;;;;;29.77;20.60;;;17.20;99.90;;;;;;5042095;28;20435;-68
2022/10/11 11:14:13;;;;;;;33.10;20.03;;;17.40;99.90;;;;;;5034944;28;20479;-69
2022/10/11 11:17:05;;;;;;;29.27;20.80;;;17.10;99.90;;;;;;5050580;28;20526;-68
2022/10/11 11:19:49;;;;;;;21.50;18.70;;;17.00;99.90;;;;;;5040130;28;20460;-69
2022/10/11 11:22:37;;;;;;;24.10;17.53;;;16.90;99.90;;;;;;5039847;28;20967;-68
2022/10/11 11:25:16;;;;;;;22.40;18.73;;;17.00;99.90;;;;;;5041196;28;20917;-68
2022/10/11 11:28:10;;;;;;;27.03;19.30;;;16.90;99.90;;;;;;5043229;28;20895;-68
2022/10/11 11:31:20;;;;;;;26.30;17.53;;;16.70;99.90;;;;;;5034168;28;20523;-68
2022/10/11 11:34:18;;;;;;;30.37;20.33;;;16.60;99.90;;;;;;5040502;28;20420;-68
2022/10/11 11:36:56;;;;;;;25.37;19.73;;;16.40;99.90;;;;;;5042853;28;20436;-68
2022/10/11 11:39:29;;;;;;;24.10;19.27;;;16.50;99.90;;;;;;5036824;28;20980;-68
2022/10/11 11:42:06;;;;;;;28.43;19.10;;;16.40;99.90;;;;;;5042513;28;20507;-68
2022/10/11 11:44:40;;;;;;;23.90;18.47;;;16.20;99.90;;;;;;5045910;28;20419;-68
2022/10/11 11:47:17;;;;;;;24.57;18.10;;;16.20;99.90;;;;;;5051195;28;20436;-69
2022/10/11 11:50:21;;;;;;;21.53;19.23;;;16.30;99.90;;;;;;5054652;28;20428;-68
2022/10/11 11:52:50;;;;;;;19.47;15.70;;;16.30;99.90;;;;;;5055601;28;20808;-68
2022/10/11 11:55:30;;;;;;;21.47;17.00;;;16.30;99.90;;;;;;5048320;28;20515;-69
2022/10/11 11:58:27;;;;;;;27.60;17.87;;;16.20;99.90;;;;;;5035463;28;20456;-70
2022/10/11 12:01:02;;;;;;;24.70;18.67;;;16.20;99.90;;;;;;5034386;28;20546;-72
2022/10/11 12:03:37;;;;;;;23.27;20.87;;;16.30;99.90;;;;;;5054884;28;20426;-69
2022/10/11 12:06:32;;;;;;;20.50;18.10;;;16.20;99.90;;;;;;5049847;28;20415;-69
2022/10/11 12:09:00;;;;;;;20.23;18.13;;;16.00;99.90;;;;;;5034613;28;20432;-69
2022/10/11 12:11:46;;;;;;;22.37;17.60;;;16.10;99.90;;;;;;5035370;28;20419;-69
2022/10/11 12:14:26;;;;;;;19.70;17.60;;;16.10;99.90;;;;;;5032832;28;20864;-69
2022/10/11 12:17:13;;;;;;;18.93;16.10;;;16.10;99.90;;;;;;5053332;28;20475;-69
2022/10/11 12:20:15;;;;;;;20.67;16.23;;;16.30;99.90;;;;;;5053921;28;20452;-69
2022/10/11 12:23:01;;;;;;;17.73;15.93;;;16.10;99.90;;;;;;5055109;28;20446;-68
2022/10/11 12:25:27;;;;;;;18.00;14.50;;;16.20;99.90;;;;;;5046895;28;20427;-69
2022/10/11 12:27:55;;;;;;;22.80;16.00;;;16.30;99.90;;;;;;5055168;28;20443;-74
2022/10/11 12:30:43;;;;;;;24.47;15.87;;;16.40;99.90;;;;;;5052764;28;20198;-69
2022/10/11 12:33:31;;;;;;;18.20;15.00;;;16.20;99.90;;;;;;5054440;28;20419;-70
2022/10/11 12:36:01;;;;;;;20.33;16.53;;;16.10;99.90;;;;;;5039980;28;20439;-69
2022/10/11 12:38:30;;;;;;;18.83;14.87;;;16.20;99.90;;;;;;5053861;28;20497;-69
2022/10/11 12:40:59;;;;;;;18.00;14.00;;;16.20;99.90;;;;;;5053925;28;20824;-69
2022/10/11 12:43:31;;;;;;;21.30;15.40;;;16.40;99.90;;;;;;5054240;28;20420;-69
2022/10/11 12:46:29;;;;;;;15.57;13.93;;;16.50;99.90;;;;;;5048125;28;20498;-69
2022/10/11 12:49:17;;;;;;;16.23;14.33;;;16.60;99.90;;;;;;5043127;28;20424;-70
2022/10/11 12:51:58;;;;;;;17.67;14.87;;;16.70;99.90;;;;;;5052952;28;20477;-69
2022/10/11 12:54:53;;;;;;;17.97;14.37;;;16.80;99.90;;;;;;5034626;28;20436;-68
2022/10/11 12:57:57;;;;;;;28.97;15.60;;;17.00;99.90;;;;;;5052893;28;21040;-68